Tim Quigg — WDB6570 — position and weather

sailwx.info

Track history (hours):
 
Tides and Currents Weather Stations Pressure Air Temp Water Temp Dewpoint Dewpoint Depression Visibility Wind Speed Wind Dir Waves Ship Positions

Tim Quigg

Owner: Harley Marine Services, Inc, Seattle, WA. More information available from US FCC via Universal Licensing System and Coast Guard Vessel Documentation Center.

Last reported at 2016-May-04 11:34 UTC. Time now 2016-May-04 11:44 UTC.
Position N 33°43' W 118°16'.

Type: Tug. MMSI: 366926740.

Date/timePositionNaut miles runAvg speedWind from/ knotsBaromVisibWave heightAir tempDewpointWater temp
2016-May-04 11:34N 33°43' W 118°16'4 3.7
2016-May-04 10:34N 33°44' W 118°11'2 0.2
2016-May-03 23:33N 33°43' W 118°14'2 1.7
2016-May-03 22:33N 33°45' W 118°13'2 1.6
2016-May-03 21:33N 33°43' W 118°14'0 0.0
2016-May-03 14:32N 33°43' W 118°14'2 2.2
2016-May-03 13:33N 33°45' W 118°12'3 2.5
2016-May-03 12:32N 33°43' W 118°14'3 3.2
2016-May-03 11:34N 33°46' W 118°16'2 0.1
2016-May-02 19:32N 33°44' W 118°16'2 2.3
2016-May-02 18:33N 33°43' W 118°13'2 2.1
2016-May-02 17:28N 33°44' W 118°16'0 0.0
2016-May-02 16:33N 33°44' W 118°16'3 3.2
2016-May-02 15:33N 33°46' W 118°13'1 1.2
2016-May-02 14:33N 33°45' W 118°12'3 3.0
2016-May-02 13:28N 33°43' W 118°15'2 1.9
2016-May-02 12:33N 33°43' W 118°13'2 2.0
2016-May-02 11:33N 33°45' W 118°13'2 2.0
2016-May-02 10:33N 33°43' W 118°14'2 0.1
2016-May-01 15:06N 33°44' W 118°16'2 1.1
2016-May-01 13:33N 33°45' W 118°16'2 0.2
2016-May-01 02:32N 33°44' W 118°16'2 1.9
2016-May-01 01:33N 33°45' W 118°16'2 1.4
2016-May-01 00:19N 33°44' W 118°16'1 1.3
2016-Apr-30 23:25N 33°45' W 118°17'3 0.3
2016-Apr-30 14:33N 33°44' W 118°13'1 0.8
2016-Apr-30 13:33N 33°45' W 118°13'3 3.4
2016-Apr-30 12:33N 33°44' W 118°17'1 0.8
2016-Apr-30 11:32N 33°44' W 118°16'1 0.1
2016-Apr-29 23:32N 33°44' W 118°15'0 0.1
2016-Apr-29 22:34N 33°44' W 118°15'2 0.5
2016-Apr-29 19:13N 33°44' W 118°13'1 0.9
2016-Apr-29 18:26N 33°44' W 118°13'2 2.7
2016-Apr-29 17:34N 33°46' W 118°16'2 2.1
2016-Apr-29 16:34N 33°44' W 118°16'2 1.6
2016-Apr-29 15:34N 33°45' W 118°16'1 0.1
2016-Apr-29 01:28N 33°44' W 118°17'2 2.7
2016-Apr-29 00:33N 33°46' W 118°14'3 2.4
2016-Apr-28 23:13N 33°43' W 118°15'1 0.1
2016-Apr-28 12:22N 33°44' W 118°16'2 3.0
2016-Apr-28 11:33N 33°46' W 118°16'2 2.2
2016-Apr-28 10:33N 33°44' W 118°16'1 0.1
2016-Apr-27 23:16N 33°44' W 118°16'2 2.2
2016-Apr-27 22:26N 33°45' W 118°14'2 1.9
2016-Apr-27 21:33N 33°44' W 118°12'3 0.1
2016-Apr-27 01:23N 33°44' W 118°16'3 4.0
2016-Apr-27 00:34N 33°46' W 118°13'1 0.9
2016-Apr-26 23:34N 33°46' W 118°14'2 2.2
2016-Apr-26 22:33N 33°45' W 118°17'2 2.5
2016-Apr-26 21:33N 33°43' W 118°16'1 0.6
2016-Apr-26 20:11N 33°44' W 118°16'2 3.1
2016-Apr-26 19:34N 33°46' W 118°16'0 0.5
2016-Apr-26 18:33N 33°45' W 118°16'2 1.6
2016-Apr-26 17:19N 33°43' W 118°16'1 0.5
2016-Apr-26 16:13N 33°44' W 118°16'0 0.0
2016-Apr-26 15:31N 33°44' W 118°16'2 1.2
2016-Apr-26 13:34N 33°45' W 118°13'1 0.8
2016-Apr-26 12:33N 33°46' W 118°13'2 1.9
2016-Apr-26 11:33N 33°44' W 118°12'0 0.0
2016-Apr-26 10:33N 33°44' W 118°12'1 0.7
2016-Apr-26 09:33N 33°44' W 118°13'1 0.3
2016-Apr-26 05:31N 33°43' W 118°15'3 3.0
2016-Apr-26 04:33N 33°46' W 118°13'1 0.5
2016-Apr-26 03:30N 33°45' W 118°13'0 0.1
2016-Apr-26 02:33N 33°45' W 118°13'2 2.3
2016-Apr-26 01:27N 33°44' W 118°16'1 1.4
2016-Apr-26 00:32N 33°43' W 118°15'4 4.5
2016-Apr-25 23:33N 33°44' W 118°10'6 5.2
2016-Apr-25 22:29N 33°43' W 118°16'1 0.6
2016-Apr-25 21:32N 33°44' W 118°16'0 0.1
2016-Apr-25 20:33N 33°44' W 118°16'2 1.7
2016-Apr-25 19:33N 33°45' W 118°16'  
Track history (hours):
 
Tides and Currents Weather Stations Pressure Air Temp Water Temp Dewpoint Dewpoint Depression Visibility Wind Speed Wind Dir Waves Ship Positions

Tim Quigg

Owner: Harley Marine Services, Inc, Seattle, WA. More information available from US FCC via Universal Licensing System and Coast Guard Vessel Documentation Center.

Last reported at 2016-May-04 11:34 UTC. Time now 2016-May-04 11:44 UTC.
Position N 33°43' W 118°16'.

Type: Tug. MMSI: 366926740.

Date/timePositionNaut miles runAvg speedWind from/ knotsBaromVisibWave heightAir tempDewpointWater temp
2016-May-04 11:34N 33°43' W 118°16'4 3.7
2016-May-04 10:34N 33°44' W 118°11'2 0.2
2016-May-03 23:33N 33°43' W 118°14'2 1.7
2016-May-03 22:33N 33°45' W 118°13'2 1.6
2016-May-03 21:33N 33°43' W 118°14'0 0.0
2016-May-03 14:32N 33°43' W 118°14'2 2.2
2016-May-03 13:33N 33°45' W 118°12'3 2.5
2016-May-03 12:32N 33°43' W 118°14'3 3.2
2016-May-03 11:34N 33°46' W 118°16'2 0.1
2016-May-02 19:32N 33°44' W 118°16'2 2.3
2016-May-02 18:33N 33°43' W 118°13'2 2.1
2016-May-02 17:28N 33°44' W 118°16'0 0.0
2016-May-02 16:33N 33°44' W 118°16'3 3.2
2016-May-02 15:33N 33°46' W 118°13'1 1.2
2016-May-02 14:33N 33°45' W 118°12'3 3.0
2016-May-02 13:28N 33°43' W 118°15'2 1.9
2016-May-02 12:33N 33°43' W 118°13'2 2.0
2016-May-02 11:33N 33°45' W 118°13'2 2.0
2016-May-02 10:33N 33°43' W 118°14'2 0.1
2016-May-01 15:06N 33°44' W 118°16'2 1.1
2016-May-01 13:33N 33°45' W 118°16'2 0.2
2016-May-01 02:32N 33°44' W 118°16'2 1.9
2016-May-01 01:33N 33°45' W 118°16'2 1.4
2016-May-01 00:19N 33°44' W 118°16'1 1.3
2016-Apr-30 23:25N 33°45' W 118°17'3 0.3
2016-Apr-30 14:33N 33°44' W 118°13'1 0.8
2016-Apr-30 13:33N 33°45' W 118°13'3 3.4
2016-Apr-30 12:33N 33°44' W 118°17'1 0.8
2016-Apr-30 11:32N 33°44' W 118°16'1 0.1
2016-Apr-29 23:32N 33°44' W 118°15'0 0.1
2016-Apr-29 22:34N 33°44' W 118°15'2 0.5
2016-Apr-29 19:13N 33°44' W 118°13'1 0.9
2016-Apr-29 18:26N 33°44' W 118°13'2 2.7
2016-Apr-29 17:34N 33°46' W 118°16'2 2.1
2016-Apr-29 16:34N 33°44' W 118°16'2 1.6
2016-Apr-29 15:34N 33°45' W 118°16'1 0.1
2016-Apr-29 01:28N 33°44' W 118°17'2 2.7
2016-Apr-29 00:33N 33°46' W 118°14'3 2.4
2016-Apr-28 23:13N 33°43' W 118°15'1 0.1
2016-Apr-28 12:22N 33°44' W 118°16'2 3.0
2016-Apr-28 11:33N 33°46' W 118°16'2 2.2
2016-Apr-28 10:33N 33°44' W 118°16'1 0.1
2016-Apr-27 23:16N 33°44' W 118°16'2 2.2
2016-Apr-27 22:26N 33°45' W 118°14'2 1.9
2016-Apr-27 21:33N 33°44' W 118°12'3 0.1
2016-Apr-27 01:23N 33°44' W 118°16'3 4.0
2016-Apr-27 00:34N 33°46' W 118°13'1 0.9
2016-Apr-26 23:34N 33°46' W 118°14'2 2.2
2016-Apr-26 22:33N 33°45' W 118°17'2 2.5
2016-Apr-26 21:33N 33°43' W 118°16'1 0.6
2016-Apr-26 20:11N 33°44' W 118°16'2 3.1
2016-Apr-26 19:34N 33°46' W 118°16'0 0.5
2016-Apr-26 18:33N 33°45' W 118°16'2 1.6
2016-Apr-26 17:19N 33°43' W 118°16'1 0.5
2016-Apr-26 16:13N 33°44' W 118°16'0 0.0
2016-Apr-26 15:31N 33°44' W 118°16'2 1.2
2016-Apr-26 13:34N 33°45' W 118°13'1 0.8
2016-Apr-26 12:33N 33°46' W 118°13'2 1.9
2016-Apr-26 11:33N 33°44' W 118°12'0 0.0
2016-Apr-26 10:33N 33°44' W 118°12'1 0.7
2016-Apr-26 09:33N 33°44' W 118°13'1 0.3
2016-Apr-26 05:31N 33°43' W 118°15'3 3.0
2016-Apr-26 04:33N 33°46' W 118°13'1 0.5
2016-Apr-26 03:30N 33°45' W 118°13'0 0.1
2016-Apr-26 02:33N 33°45' W 118°13'2 2.3
2016-Apr-26 01:27N 33°44' W 118°16'1 1.4
2016-Apr-26 00:32N 33°43' W 118°15'4 4.5
2016-Apr-25 23:33N 33°44' W 118°10'6 5.2
2016-Apr-25 22:29N 33°43' W 118°16'1 0.6
2016-Apr-25 21:32N 33°44' W 118°16'0 0.1
2016-Apr-25 20:33N 33°44' W 118°16'2 1.7
2016-Apr-25 19:33N 33°45' W 118°16'  

Dump ship's entire track history